createdAt,value
2018-11-06T00:01:47.785Z,22.63
2018-11-06T00:04:16.672Z,22.70
2018-11-06T00:06:46.725Z,22.10
2018-11-06T00:09:15.654Z,21.53
2018-11-06T00:11:44.775Z,21.63
2018-11-06T00:14:14.551Z,22.10
2018-11-06T00:16:43.253Z,20.67
2018-11-06T00:19:12.737Z,21.47
2018-11-06T00:21:41.508Z,21.03
2018-11-06T00:24:10.359Z,21.63
2018-11-06T00:26:39.010Z,21.53
2018-11-06T00:29:07.763Z,22.07
2018-11-06T00:31:36.558Z,21.40
2018-11-06T00:34:05.820Z,20.40
2018-11-06T00:36:34.820Z,20.73
2018-11-06T00:39:03.721Z,20.60
2018-11-06T00:41:32.754Z,21.33
2018-11-06T00:44:01.511Z,21.20
2018-11-06T00:46:30.691Z,21.60
2018-11-06T00:49:00.206Z,20.87
2018-11-06T00:51:29.434Z,21.43
2018-11-06T00:53:59.207Z,20.90
2018-11-06T00:56:27.995Z,20.20
2018-11-06T00:58:56.857Z,20.53
2018-11-06T01:01:26.057Z,20.10
2018-11-06T01:04:01.100Z,20.27
2018-11-06T01:06:29.880Z,19.60
2018-11-06T01:08:58.644Z,20.93
2018-11-06T01:11:27.343Z,21.37
2018-11-06T01:13:56.416Z,20.00
2018-11-06T01:16:25.906Z,20.57
2018-11-06T01:18:54.662Z,20.33
2018-11-06T01:21:24.395Z,20.27
2018-11-06T01:23:57.476Z,21.83
2018-11-06T01:26:26.382Z,20.30
2018-11-06T01:28:56.140Z,20.30
2018-11-06T01:31:25.183Z,20.70
2018-11-06T01:33:54.581Z,20.80
2018-11-06T01:36:23.744Z,19.77
2018-11-06T01:38:52.971Z,20.73
2018-11-06T01:41:22.615Z,20.83
2018-11-06T01:43:51.345Z,21.17
2018-11-06T01:46:20.168Z,20.50
2018-11-06T01:48:49.204Z,20.93
2018-11-06T01:51:18.226Z,19.57
2018-11-06T01:53:46.900Z,21.27
2018-11-06T01:56:15.797Z,19.83
2018-11-06T01:58:45.280Z,21.17
2018-11-06T02:01:16.297Z,20.50
2018-11-06T02:03:45.180Z,20.57
2018-11-06T02:06:16.462Z,20.43
2018-11-06T02:08:46.172Z,20.37
2018-11-06T02:11:15.039Z,20.17
2018-11-06T02:13:44.281Z,19.73
2018-11-06T02:16:12.981Z,19.33
2018-11-06T02:18:42.178Z,20.17
2018-11-06T02:21:11.083Z,20.10
2018-11-06T02:23:40.383Z,20.33
2018-11-06T02:26:09.411Z,20.90
2018-11-06T02:28:38.218Z,20.43
2018-11-06T02:31:06.978Z,21.67
2018-11-06T02:33:35.892Z,21.23
2018-11-06T02:36:04.674Z,21.47
2018-11-06T02:38:33.990Z,21.87
2018-11-06T02:41:04.064Z,22.73
2018-11-06T02:43:32.810Z,20.93
2018-11-06T02:46:01.974Z,22.10
2018-11-06T02:48:30.767Z,22.10
2018-11-06T02:51:00.448Z,22.27
2018-11-06T02:53:29.249Z,21.97
2018-11-06T02:55:58.178Z,21.17
2018-11-06T02:58:27.137Z,21.63
2018-11-06T03:00:55.835Z,21.53
2018-11-06T03:03:24.923Z,21.97
2018-11-06T03:05:53.872Z,21.53
2018-11-06T03:08:26.173Z,22.13
2018-11-06T03:10:56.113Z,22.10
2018-11-06T03:13:24.825Z,22.83
2018-11-06T03:15:55.196Z,22.50
2018-11-06T03:18:24.479Z,23.03
2018-11-06T03:20:53.585Z,21.57
2018-11-06T03:23:22.746Z,21.53
2018-11-06T03:25:52.052Z,21.70
2018-11-06T03:28:20.747Z,20.97
2018-11-06T03:30:49.558Z,21.77
2018-11-06T03:33:18.249Z,20.97
2018-11-06T03:35:47.368Z,21.37
2018-11-06T03:38:16.076Z,21.03
2018-11-06T03:40:44.870Z,21.90
2018-11-06T03:43:14.048Z,21.50
2018-11-06T03:45:44.047Z,21.07
2018-11-06T03:48:12.848Z,22.13
2018-11-06T03:50:41.531Z,21.83
2018-11-06T03:53:10.307Z,21.63
2018-11-06T03:55:39.037Z,22.33
2018-11-06T03:58:08.315Z,22.83
2018-11-06T04:00:37.173Z,21.93
2018-11-06T04:03:07.219Z,22.53
2018-11-06T04:05:36.577Z,22.17
2018-11-06T04:08:05.745Z,21.90
2018-11-06T04:10:34.931Z,21.77
2018-11-06T04:13:03.701Z,22.30
2018-11-06T04:15:32.860Z,21.73
2018-11-06T04:18:01.726Z,21.23
2018-11-06T04:20:31.366Z,22.00
2018-11-06T04:23:00.440Z,21.00
2018-11-06T04:25:29.166Z,21.30
2018-11-06T04:27:57.889Z,22.37
2018-11-06T04:30:26.708Z,22.40
2018-11-06T04:32:56.885Z,22.13
2018-11-06T04:35:25.786Z,21.57
2018-11-06T04:37:54.511Z,21.77
2018-11-06T04:40:23.818Z,21.47
2018-11-06T04:42:53.863Z,22.53
2018-11-06T04:45:22.578Z,22.53
2018-11-06T04:47:51.468Z,22.30
2018-11-06T04:50:20.463Z,23.20
2018-11-06T04:52:49.231Z,22.73
2018-11-06T04:55:18.288Z,21.67
2018-11-06T04:57:47.261Z,22.77
2018-11-06T05:00:16.203Z,22.93
2018-11-06T05:02:45.069Z,22.27
2018-11-06T05:05:14.942Z,21.67
2018-11-06T05:07:43.664Z,21.30
2018-11-06T05:10:14.645Z,22.57
2018-11-06T05:12:44.318Z,21.53
2018-11-06T05:15:14.583Z,22.33
2018-11-06T05:17:43.340Z,22.33
2018-11-06T05:20:14.624Z,21.60
2018-11-06T05:22:45.135Z,21.03
2018-11-06T05:25:14.085Z,21.83
2018-11-06T05:27:43.933Z,22.00
2018-11-06T05:30:13.284Z,21.37
2018-11-06T05:32:45.374Z,21.97
2018-11-06T05:35:15.156Z,21.90
2018-11-06T05:37:44.340Z,21.17
2018-11-06T05:40:24.068Z,21.73
2018-11-06T05:42:55.798Z,21.00
2018-11-06T05:45:25.617Z,20.67
2018-11-06T05:47:54.604Z,20.40
2018-11-06T05:50:23.424Z,19.60
2018-11-06T05:52:52.306Z,20.27
2018-11-06T05:55:21.538Z,20.00
2018-11-06T05:57:50.740Z,19.63
2018-11-06T06:00:20.077Z,19.97
2018-11-06T06:02:48.818Z,20.87
2018-11-06T06:05:18.552Z,19.47
2018-11-06T06:07:47.273Z,19.57
2018-11-06T06:10:17.755Z,19.40
2018-11-06T06:12:46.711Z,20.47
2018-11-06T06:15:16.433Z,19.37
2018-11-06T06:17:45.259Z,19.60
2018-11-06T06:20:16.291Z,20.90
2018-11-06T06:22:46.997Z,20.40
2018-11-06T06:25:15.819Z,20.53
2018-11-06T06:27:44.591Z,20.03
2018-11-06T06:30:14.772Z,20.63
2018-11-06T06:32:44.050Z,20.53
2018-11-06T06:35:13.502Z,21.33
2018-11-06T06:37:42.414Z,20.67
2018-11-06T06:40:13.181Z,21.70
2018-11-06T06:42:42.690Z,21.57
2018-11-06T06:45:13.090Z,21.23
2018-11-06T06:47:42.028Z,21.73
2018-11-06T06:50:13.488Z,21.80
2018-11-06T06:52:42.634Z,22.00
2018-11-06T06:55:12.517Z,22.17
2018-11-06T06:57:43.064Z,20.97
2018-11-06T07:00:14.927Z,23.00
2018-11-06T07:02:43.675Z,22.97
2018-11-06T07:05:14.897Z,22.17
2018-11-06T07:07:44.297Z,22.03
2018-11-06T07:10:16.264Z,21.90
2018-11-06T07:12:48.225Z,22.67
2018-11-06T07:15:18.314Z,21.37
2018-11-06T07:17:48.107Z,22.00
2018-11-06T07:20:18.386Z,20.67
2018-11-06T07:22:47.134Z,21.13
2018-11-06T07:25:16.168Z,21.87
2018-11-06T07:27:46.300Z,20.67
2018-11-06T07:30:16.614Z,21.33
2018-11-06T07:32:47.558Z,21.87
2018-11-06T07:35:20.382Z,20.80
2018-11-06T07:37:48.976Z,20.53
2018-11-06T07:40:19.063Z,20.83
2018-11-06T07:42:47.737Z,20.07
2018-11-06T07:45:19.860Z,21.13
2018-11-06T07:47:48.567Z,21.57
2018-11-06T07:50:17.309Z,20.17
2018-11-06T07:52:46.183Z,20.43
2018-11-06T07:55:16.092Z,20.73
2018-11-06T07:57:45.222Z,20.80
2018-11-06T08:00:20.020Z,20.93
2018-11-06T08:02:49.245Z,20.00
2018-11-06T08:05:18.224Z,22.10
2018-11-06T08:07:47.788Z,20.87
2018-11-06T08:10:16.414Z,21.03
2018-11-06T08:12:46.619Z,21.20
2018-11-06T08:15:15.388Z,20.03
2018-11-06T08:17:44.726Z,21.43
2018-11-06T08:20:13.612Z,21.37
2018-11-06T08:22:43.711Z,20.93
2018-11-06T08:25:13.555Z,22.67
2018-11-06T08:27:43.064Z,22.13
2018-11-06T08:30:12.491Z,21.57
2018-11-06T08:32:42.680Z,21.63
2018-11-06T08:35:13.021Z,22.53
2018-11-06T08:37:42.156Z,20.77
2018-11-06T08:40:12.367Z,21.30
2018-11-06T08:42:41.105Z,21.33
2018-11-06T08:45:12.371Z,22.03
2018-11-06T08:47:41.942Z,20.63
2018-11-06T08:50:12.488Z,21.97
2018-11-06T08:52:41.526Z,21.40
2018-11-06T08:55:11.341Z,21.57
2018-11-06T08:57:40.599Z,22.20
2018-11-06T09:00:11.684Z,22.03
2018-11-06T09:02:40.454Z,21.23
2018-11-06T09:05:10.944Z,21.10
2018-11-06T09:07:39.740Z,21.53
2018-11-06T09:10:09.583Z,20.97
2018-11-06T09:12:39.021Z,22.03
2018-11-06T09:15:09.364Z,21.47
2018-11-06T09:17:38.594Z,21.37
2018-11-06T09:20:08.211Z,21.90
2018-11-06T09:22:38.261Z,21.70
2018-11-06T09:25:09.251Z,21.07
2018-11-06T09:27:38.881Z,21.90
2018-11-06T09:30:10.006Z,21.37
2018-11-06T09:32:39.466Z,21.90
2018-11-06T09:35:08.741Z,21.20
2018-11-06T09:37:37.505Z,21.37
2018-11-06T09:40:07.746Z,21.33
2018-11-06T09:42:36.488Z,22.67
2018-11-06T09:45:05.626Z,20.93
2018-11-06T09:47:34.373Z,23.10
2018-11-06T09:50:03.110Z,21.27
2018-11-06T09:52:31.862Z,20.63
2018-11-06T09:55:00.516Z,20.00
2018-11-06T09:57:29.204Z,20.10
2018-11-06T09:59:57.971Z,20.73
2018-11-06T10:02:26.709Z,20.77
2018-11-06T10:04:55.336Z,20.13
2018-11-06T10:07:24.219Z,21.10
2018-11-06T10:09:52.753Z,20.33
2018-11-06T10:12:21.591Z,20.37
2018-11-06T10:14:50.285Z,20.47
2018-11-06T10:17:19.021Z,18.83
2018-11-06T10:19:47.697Z,18.67
2018-11-06T10:22:16.305Z,18.97
2018-11-06T10:24:44.984Z,19.57
2018-11-06T10:27:13.642Z,18.43
2018-11-06T10:29:42.356Z,19.40
2018-11-06T10:32:11.279Z,18.33
2018-11-06T10:34:40.062Z,18.77
2018-11-06T10:37:08.716Z,18.43
2018-11-06T10:39:37.412Z,17.87
2018-11-06T10:42:06.283Z,18.87
2018-11-06T10:44:35.070Z,18.10
2018-11-06T10:47:03.760Z,18.10
2018-11-06T10:49:32.423Z,17.90
2018-11-06T10:52:01.187Z,17.50
2018-11-06T10:54:30.635Z,18.37
2018-11-06T10:57:02.731Z,17.13
2018-11-06T10:59:33.057Z,17.53
2018-11-06T11:02:07.261Z,17.50
2018-11-06T11:04:36.018Z,16.73
2018-11-06T11:07:05.352Z,16.73
2018-11-06T11:09:36.080Z,16.80
2018-11-06T11:12:04.840Z,16.97
2018-11-06T11:14:34.310Z,16.40
2018-11-06T11:17:03.031Z,16.70
2018-11-06T11:19:31.679Z,17.33
2018-11-06T11:22:00.362Z,18.20
2018-11-06T11:24:29.187Z,17.63
2018-11-06T11:26:57.893Z,16.00
2018-11-06T11:29:26.572Z,16.27
2018-11-06T11:31:55.761Z,14.77
2018-11-06T11:34:24.954Z,13.87
2018-11-06T11:36:53.705Z,13.23
2018-11-06T11:39:22.360Z,12.70
2018-11-06T11:41:51.029Z,11.70
2018-11-06T11:44:20.959Z,11.03
2018-11-06T11:46:49.799Z,11.37
2018-11-06T11:49:18.561Z,10.83
2018-11-06T11:51:47.356Z,10.60
2018-11-06T11:54:16.352Z,11.33
2018-11-06T11:56:45.196Z,12.30
2018-11-06T11:59:13.912Z,11.43
2018-11-06T12:01:42.704Z,11.60
2018-11-06T12:04:14.479Z,11.73
2018-11-06T12:06:43.407Z,11.70
2018-11-06T12:09:15.963Z,10.40
2018-11-06T12:11:45.555Z,9.73
2018-11-06T12:14:15.169Z,11.20
2018-11-06T12:16:44.179Z,10.97
2018-11-06T12:19:15.455Z,10.20
2018-11-06T12:21:44.362Z,10.60
2018-11-06T12:24:14.469Z,10.20
2018-11-06T12:26:43.533Z,10.40
2018-11-06T12:29:12.448Z,10.37
2018-11-06T12:31:44.377Z,10.63
2018-11-06T12:34:17.043Z,9.87
2018-11-06T12:36:45.957Z,10.13
2018-11-06T12:39:14.685Z,9.57
2018-11-06T12:41:43.462Z,9.60
2018-11-06T12:44:12.078Z,9.83
2018-11-06T12:46:41.686Z,8.97
2018-11-06T12:49:10.435Z,9.00
2018-11-06T12:51:39.350Z,9.20
2018-11-06T12:54:08.095Z,9.07
2018-11-06T12:56:38.447Z,8.77
2018-11-06T12:59:08.207Z,8.80
2018-11-06T13:01:40.140Z,8.30
2018-11-06T13:04:08.843Z,8.33
2018-11-06T13:06:37.550Z,8.23
2018-11-06T13:09:09.885Z,8.70
2018-11-06T13:11:39.697Z,7.63
2018-11-06T13:14:09.865Z,7.63
2018-11-06T13:16:39.554Z,7.43
2018-11-06T13:19:08.520Z,7.17
2018-11-06T13:21:38.149Z,7.53
2018-11-06T13:24:07.126Z,7.77
2018-11-06T13:26:40.646Z,7.90
2018-11-06T13:29:12.713Z,7.73
2018-11-06T13:31:42.018Z,7.20
2018-11-06T13:34:14.486Z,7.17
2018-11-06T13:36:49.700Z,7.47
2018-11-06T13:39:20.045Z,6.90
2018-11-06T13:41:49.836Z,7.00
2018-11-06T13:44:18.955Z,7.87
2018-11-06T13:46:50.391Z,7.43
2018-11-06T13:49:29.168Z,8.07
2018-11-06T13:51:58.505Z,8.00
2018-11-06T13:54:29.229Z,8.40
2018-11-06T13:56:58.079Z,7.90
2018-11-06T13:59:27.153Z,7.83
2018-11-06T14:01:55.968Z,8.07
2018-11-06T14:04:25.564Z,7.90
2018-11-06T14:06:55.024Z,8.30
2018-11-06T14:09:23.745Z,8.33
2018-11-06T14:11:54.281Z,7.20
2018-11-06T14:14:23.001Z,7.80
2018-11-06T14:16:52.050Z,7.13
2018-11-06T14:19:21.166Z,7.80
2018-11-06T14:21:49.857Z,7.80
2018-11-06T14:24:19.808Z,7.83
2018-11-06T14:26:52.873Z,7.43
2018-11-06T14:29:21.755Z,7.80
2018-11-06T14:31:51.131Z,7.80
2018-11-06T14:34:19.842Z,7.83
2018-11-06T14:36:50.343Z,7.00
2018-11-06T14:39:19.653Z,7.00
2018-11-06T14:41:50.163Z,7.10
2018-11-06T14:44:19.832Z,7.30
2018-11-06T14:46:48.920Z,7.70
2018-11-06T14:49:18.964Z,7.30
2018-11-06T14:51:47.655Z,7.53
2018-11-06T14:54:17.253Z,7.87
2018-11-06T14:56:46.703Z,7.43
2018-11-06T14:59:15.814Z,6.97
2018-11-06T15:01:45.665Z,7.30
2018-11-06T15:04:14.561Z,7.23
2018-11-06T15:06:43.289Z,6.60
2018-11-06T15:09:13.129Z,7.10
2018-11-06T15:11:42.018Z,6.83
2018-11-06T15:14:11.316Z,6.80
2018-11-06T15:16:41.310Z,6.63
2018-11-06T15:19:10.985Z,7.00
2018-11-06T15:21:39.776Z,6.97
2018-11-06T15:24:08.423Z,6.77
2018-11-06T15:26:45.697Z,7.40
2018-11-06T15:29:23.845Z,7.10
2018-11-06T15:31:53.163Z,7.23
2018-11-06T15:34:23.441Z,7.20
2018-11-06T15:36:52.432Z,7.43
2018-11-06T15:39:21.479Z,7.33
2018-11-06T15:41:50.837Z,7.80
2018-11-06T15:44:20.181Z,7.43
2018-11-06T15:46:49.141Z,6.83
2018-11-06T15:49:18.920Z,6.67
2018-11-06T15:51:48.738Z,6.70
2018-11-06T15:54:17.428Z,6.97
2018-11-06T15:56:46.171Z,6.40
2018-11-06T15:59:15.195Z,7.33
2018-11-06T16:01:44.026Z,7.30
2018-11-06T16:04:12.798Z,6.23
2018-11-06T16:06:41.940Z,6.57
2018-11-06T16:09:10.706Z,6.50
2018-11-06T16:11:39.508Z,6.63
2018-11-06T16:14:08.462Z,6.73
2018-11-06T16:16:37.246Z,6.97
2018-11-06T16:19:06.081Z,7.30
2018-11-06T16:21:34.830Z,7.40
2018-11-06T16:24:03.758Z,7.27
2018-11-06T16:26:32.555Z,7.33
2018-11-06T16:29:01.283Z,7.90
2018-11-06T16:31:30.064Z,7.57
2018-11-06T16:33:58.816Z,8.23
2018-11-06T16:36:27.440Z,8.47
2018-11-06T16:38:56.364Z,7.70
2018-11-06T16:41:25.045Z,7.73
2018-11-06T16:43:53.734Z,8.73
2018-11-06T16:46:23.108Z,9.47
2018-11-06T16:48:51.796Z,8.33
2018-11-06T16:51:20.511Z,8.17
2018-11-06T16:53:49.321Z,7.80
2018-11-06T16:56:18.149Z,8.33
2018-11-06T16:58:46.993Z,8.50
2018-11-06T17:01:15.808Z,8.57
2018-11-06T17:03:44.473Z,9.57
2018-11-06T17:06:18.385Z,8.70
2018-11-06T17:08:47.130Z,9.10
2018-11-06T17:11:15.886Z,8.50
2018-11-06T17:13:44.536Z,8.47
2018-11-06T17:16:13.689Z,8.07
2018-11-06T17:18:42.540Z,13.47
2018-11-06T17:21:12.050Z,8.43
2018-11-06T17:23:40.864Z,10.30
2018-11-06T17:26:09.666Z,7.77
2018-11-06T17:28:38.416Z,7.60
2018-11-06T17:31:07.117Z,7.93
2018-11-06T17:33:35.906Z,8.23
2018-11-06T17:36:04.708Z,8.43
2018-11-06T17:38:33.479Z,8.97
2018-11-06T17:41:02.341Z,9.73
2018-11-06T17:43:31.796Z,8.33
2018-11-06T17:46:00.622Z,11.73
2018-11-06T17:48:29.405Z,9.60
2018-11-06T17:50:58.149Z,12.70
2018-11-06T17:53:26.946Z,12.43
2018-11-06T17:55:56.100Z,12.97
2018-11-06T17:58:24.956Z,13.43
2018-11-06T18:00:53.685Z,12.00
2018-11-06T18:03:22.640Z,13.10
2018-11-06T18:05:51.417Z,16.97
2018-11-06T18:08:20.994Z,18.00
2018-11-06T18:10:49.763Z,19.77
2018-11-06T18:13:18.564Z,17.80
2018-11-06T18:15:47.276Z,12.00
2018-11-06T18:18:15.962Z,10.37
2018-11-06T18:20:44.508Z,10.63
2018-11-06T18:23:13.360Z,11.57
2018-11-06T18:25:42.332Z,10.13
2018-11-06T18:28:10.943Z,10.23
2018-11-06T18:30:39.730Z,10.10
2018-11-06T18:33:08.693Z,9.53
2018-11-06T18:35:37.382Z,9.77
2018-11-06T18:38:06.429Z,9.33
2018-11-06T18:40:36.124Z,9.90
2018-11-06T18:43:05.029Z,10.10
2018-11-06T18:45:34.914Z,9.77
2018-11-06T18:48:03.690Z,10.20
2018-11-06T18:50:32.518Z,9.40
2018-11-06T18:53:02.132Z,10.80
2018-11-06T18:55:33.189Z,10.00
2018-11-06T18:58:03.151Z,9.70
2018-11-06T19:00:34.496Z,10.10
2018-11-06T19:03:05.785Z,11.77
2018-11-06T19:05:35.631Z,11.43
2018-11-06T19:08:06.315Z,10.63
2018-11-06T19:10:39.827Z,9.60
2018-11-06T19:13:13.155Z,11.03
2018-11-06T19:15:44.887Z,10.17
2018-11-06T19:18:15.928Z,10.80
2018-11-06T19:20:48.607Z,11.20
2018-11-06T19:23:19.515Z,10.47
2018-11-06T19:25:52.586Z,10.60
2018-11-06T19:28:22.500Z,10.63
2018-11-06T19:30:52.366Z,10.63
2018-11-06T19:33:22.396Z,11.07
2018-11-06T19:35:53.354Z,10.67
2018-11-06T19:38:24.190Z,11.67
2018-11-06T19:40:55.866Z,11.73
2018-11-06T19:43:28.080Z,10.97
2018-11-06T19:45:58.816Z,11.77
2018-11-06T19:48:29.703Z,11.90
2018-11-06T19:51:00.229Z,11.70
2018-11-06T19:53:33.142Z,11.83
2018-11-06T19:56:05.901Z,11.07
2018-11-06T19:58:37.999Z,12.57
2018-11-06T20:01:09.782Z,12.50
2018-11-06T20:03:40.313Z,12.37
2018-11-06T20:06:16.197Z,12.67
2018-11-06T20:08:46.125Z,12.53
2018-11-06T20:11:20.828Z,12.40
2018-11-06T20:13:51.362Z,12.87
2018-11-06T20:16:26.108Z,13.13
2018-11-06T20:18:56.954Z,13.33
2018-11-06T20:21:29.376Z,12.93
2018-11-06T20:23:59.026Z,12.80
2018-11-06T20:26:28.990Z,13.23
2018-11-06T20:29:01.489Z,11.73
2018-11-06T20:31:36.423Z,11.70
2018-11-06T20:34:06.870Z,12.63
2018-11-06T20:36:35.711Z,12.43
2018-11-06T20:39:10.997Z,14.20
2018-11-06T20:41:45.638Z,13.90
2018-11-06T20:44:15.115Z,14.20
2018-11-06T20:46:50.447Z,15.03
2018-11-06T20:49:20.153Z,13.67
2018-11-06T20:51:51.908Z,13.20
2018-11-06T20:54:24.080Z,14.10
2018-11-06T20:56:55.212Z,12.53
2018-11-06T20:59:27.119Z,13.53
2018-11-06T21:01:57.584Z,13.03
2018-11-06T21:04:27.400Z,12.83
2018-11-06T21:06:58.000Z,12.17
2018-11-06T21:09:27.738Z,12.90
2018-11-06T21:11:59.581Z,12.77
2018-11-06T21:14:31.963Z,13.40
2018-11-06T21:17:03.378Z,13.10
2018-11-06T21:19:33.074Z,13.33
2018-11-06T21:22:05.749Z,12.50
2018-11-06T21:24:35.981Z,12.33
2018-11-06T21:27:06.451Z,12.10
2018-11-06T21:29:38.492Z,12.13
2018-11-06T21:32:08.750Z,13.37
2018-11-06T21:34:42.481Z,12.10
2018-11-06T21:37:15.020Z,12.47
2018-11-06T21:39:45.776Z,13.37
2018-11-06T21:42:16.379Z,12.80
2018-11-06T21:44:49.223Z,13.27
2018-11-06T21:47:22.720Z,13.40
2018-11-06T21:50:00.697Z,13.47
2018-11-06T21:52:30.096Z,12.53
2018-11-06T21:55:03.551Z,13.00
2018-11-06T21:57:34.119Z,12.57
2018-11-06T22:00:04.903Z,12.63
2018-11-06T22:02:38.634Z,12.70
2018-11-06T22:05:10.383Z,11.80
2018-11-06T22:07:39.414Z,11.77
2018-11-06T22:10:12.841Z,12.40
2018-11-06T22:12:43.022Z,11.70
2018-11-06T22:15:16.367Z,11.87
2018-11-06T22:17:48.888Z,11.77
2018-11-06T22:20:20.707Z,12.13
2018-11-06T22:22:51.883Z,11.87
2018-11-06T22:25:24.826Z,11.73
2018-11-06T22:27:56.596Z,12.83
2018-11-06T22:30:29.040Z,12.30
2018-11-06T22:32:57.732Z,12.33
2018-11-06T22:35:29.930Z,12.23
2018-11-06T22:37:59.239Z,12.37
2018-11-06T22:40:29.763Z,11.80
2018-11-06T22:43:00.273Z,12.13
2018-11-06T22:45:29.706Z,11.40
2018-11-06T22:47:58.596Z,11.87
2018-11-06T22:50:29.675Z,11.87
2018-11-06T22:52:59.099Z,11.20
2018-11-06T22:55:29.475Z,10.77
2018-11-06T22:58:03.522Z,11.47
2018-11-06T23:00:38.607Z,11.70
2018-11-06T23:03:13.780Z,12.10
2018-11-06T23:05:44.616Z,11.40
2018-11-06T23:08:19.973Z,11.77
2018-11-06T23:10:49.884Z,11.33
2018-11-06T23:13:20.931Z,10.87
2018-11-06T23:15:49.920Z,11.17
2018-11-06T23:18:20.107Z,11.13
2018-11-06T23:20:50.928Z,11.07
2018-11-06T23:23:20.800Z,10.87
2018-11-06T23:25:53.532Z,11.67
2018-11-06T23:28:22.972Z,11.37
2018-11-06T23:30:51.724Z,12.83
2018-11-06T23:33:22.045Z,13.60
2018-11-06T23:35:51.078Z,12.70
2018-11-06T23:38:19.759Z,11.60
2018-11-06T23:40:49.038Z,11.00
2018-11-06T23:43:22.947Z,10.43
2018-11-06T23:45:51.925Z,11.13
2018-11-06T23:48:20.682Z,11.13
2018-11-06T23:50:50.465Z,12.07
2018-11-06T23:53:19.086Z,11.67
2018-11-06T23:55:48.845Z,11.67
2018-11-06T23:58:17.437Z,10.67
